createdAt,value
2017-12-30T00:00:04.371Z,84.00
2017-12-30T00:02:30.329Z,83.50
2017-12-30T00:04:56.269Z,83.00
2017-12-30T00:07:22.384Z,83.10
2017-12-30T00:09:48.335Z,82.20
2017-12-30T00:12:15.055Z,81.50
2017-12-30T00:14:41.008Z,81.60
2017-12-30T00:17:06.972Z,81.10
2017-12-30T00:19:32.972Z,81.10
2017-12-30T00:21:58.947Z,81.60
2017-12-30T00:24:24.904Z,81.10
2017-12-30T00:26:51.150Z,81.10
2017-12-30T00:29:17.110Z,80.80
2017-12-30T00:31:43.081Z,80.60
2017-12-30T00:34:09.020Z,80.30
2017-12-30T00:36:34.987Z,80.40
2017-12-30T00:39:00.999Z,80.20
2017-12-30T00:41:26.917Z,79.70
2017-12-30T00:43:53.012Z,79.50
2017-12-30T00:46:18.949Z,78.70
2017-12-30T00:48:44.900Z,78.80
2017-12-30T00:51:11.583Z,78.70
2017-12-30T00:53:37.511Z,78.70
2017-12-30T00:56:03.524Z,78.90
2017-12-30T00:58:29.474Z,78.40
2017-12-30T01:00:55.428Z,78.70
2017-12-30T01:03:22.257Z,79.20
2017-12-30T01:05:48.217Z,79.20
2017-12-30T01:08:14.148Z,79.50
2017-12-30T01:10:40.096Z,79.70
2017-12-30T01:13:06.040Z,79.70
2017-12-30T01:15:32.033Z,79.80
2017-12-30T01:17:57.978Z,79.50
2017-12-30T01:20:23.920Z,79.50
2017-12-30T01:22:50.768Z,79.70
2017-12-30T01:25:16.732Z,79.70
2017-12-30T01:27:42.845Z,80.20
2017-12-30T01:30:08.777Z,80.00
2017-12-30T01:32:34.733Z,80.20
2017-12-30T01:35:00.688Z,80.30
2017-12-30T01:37:27.369Z,80.50
2017-12-30T01:39:53.479Z,80.50
2017-12-30T01:42:19.436Z,80.60
2017-12-30T01:44:45.411Z,80.30
2017-12-30T01:47:11.360Z,80.50
2017-12-30T01:49:37.316Z,80.20
2017-12-30T01:52:03.274Z,80.10
2017-12-30T01:54:29.210Z,80.30
2017-12-30T01:56:55.139Z,80.10
2017-12-30T01:59:21.242Z,80.20
2017-12-30T02:01:47.236Z,80.10
2017-12-30T02:04:13.184Z,79.90
2017-12-30T02:06:39.136Z,79.50
2017-12-30T02:09:05.132Z,79.20
2017-12-30T02:11:31.078Z,78.60
2017-12-30T02:13:57.014Z,78.40
2017-12-30T02:16:23.121Z,78.50
2017-12-30T02:18:49.121Z,77.90
2017-12-30T02:21:15.079Z,77.20
2017-12-30T02:23:41.080Z,77.10
2017-12-30T02:26:07.064Z,77.20
2017-12-30T02:28:33.880Z,77.70
2017-12-30T02:30:59.852Z,77.70
2017-12-30T02:33:25.927Z,78.00
2017-12-30T02:35:51.860Z,78.10
2017-12-30T02:38:17.829Z,78.30
2017-12-30T02:40:43.760Z,78.00
2017-12-30T02:43:09.730Z,77.70
2017-12-30T02:45:35.742Z,77.90
2017-12-30T02:48:01.676Z,78.00
2017-12-30T02:50:28.370Z,78.10
2017-12-30T02:52:54.343Z,78.10
2017-12-30T02:55:21.083Z,77.90
2017-12-30T02:57:47.797Z,78.00
2017-12-30T03:00:13.766Z,78.00
2017-12-30T03:02:39.852Z,77.80
2017-12-30T03:05:05.850Z,78.10
2017-12-30T03:07:31.806Z,78.40
2017-12-30T03:09:57.747Z,78.60
2017-12-30T03:12:24.458Z,78.80
2017-12-30T03:14:50.444Z,78.90
2017-12-30T03:17:16.367Z,79.30
2017-12-30T03:19:42.476Z,79.20
2017-12-30T03:22:08.428Z,79.20
2017-12-30T03:24:34.358Z,78.80
2017-12-30T03:27:00.491Z,78.80
2017-12-30T03:29:26.439Z,79.00
2017-12-30T03:31:53.163Z,79.20
2017-12-30T03:34:19.101Z,79.20
2017-12-30T03:36:45.795Z,80.00
2017-12-30T03:39:11.879Z,80.00
2017-12-30T03:41:37.834Z,80.30
2017-12-30T03:44:03.811Z,79.90
2017-12-30T03:46:30.480Z,79.60
2017-12-30T03:48:56.411Z,79.50
2017-12-30T03:51:22.379Z,79.70
2017-12-30T03:53:48.303Z,79.50
2017-12-30T03:56:15.132Z,79.20
2017-12-30T03:58:41.071Z,79.20
2017-12-30T04:01:07.784Z,79.70
2017-12-30T04:03:33.728Z,79.80
2017-12-30T04:06:00.431Z,80.10
2017-12-30T04:08:26.406Z,80.10
2017-12-30T04:10:53.105Z,80.00
2017-12-30T04:13:19.203Z,80.00
2017-12-30T04:15:45.133Z,79.80
2017-12-30T04:18:11.092Z,80.00
2017-12-30T04:20:37.051Z,80.00
2017-12-30T04:23:02.990Z,80.40
2017-12-30T04:25:28.996Z,80.60
2017-12-30T04:27:55.080Z,80.60
2017-12-30T04:30:20.999Z,80.70
2017-12-30T04:32:47.083Z,80.80
2017-12-30T04:35:13.015Z,80.80
2017-12-30T04:37:39.008Z,80.90
2017-12-30T04:40:04.957Z,81.00
2017-12-30T04:42:30.908Z,81.20
2017-12-30T04:44:56.885Z,81.10
2017-12-30T04:47:22.812Z,80.90
2017-12-30T04:49:48.906Z,80.70
2017-12-30T04:52:14.848Z,80.60
2017-12-30T04:54:40.791Z,80.70
2017-12-30T04:57:06.758Z,80.70
2017-12-30T04:59:33.451Z,80.60
2017-12-30T05:01:59.418Z,80.50
2017-12-30T05:04:26.094Z,80.30
2017-12-30T05:06:52.202Z,80.30
2017-12-30T05:09:18.135Z,80.50
2017-12-30T05:11:44.079Z,80.00
2017-12-30T05:14:10.051Z,80.10
2017-12-30T05:16:36.731Z,79.70
2017-12-30T05:19:02.706Z,79.60
2017-12-30T05:21:29.391Z,79.60
2017-12-30T05:23:56.219Z,79.70
2017-12-30T05:26:22.151Z,79.80
2017-12-30T05:28:48.219Z,79.10
2017-12-30T05:31:14.199Z,78.90
2017-12-30T05:33:40.140Z,78.60
2017-12-30T05:36:06.139Z,78.90
2017-12-30T05:38:32.064Z,79.00
2017-12-30T05:40:57.997Z,78.60
2017-12-30T05:43:24.083Z,77.50
2017-12-30T05:45:50.756Z,77.40
2017-12-30T05:48:16.731Z,77.40
2017-12-30T05:50:43.404Z,77.70
2017-12-30T05:53:09.332Z,77.60
2017-12-30T05:55:35.324Z,77.90
2017-12-30T05:58:01.251Z,78.10
2017-12-30T06:00:27.172Z,77.90
2017-12-30T06:02:53.260Z,77.60
2017-12-30T06:05:19.217Z,77.90
2017-12-30T06:07:45.139Z,78.10
2017-12-30T06:10:11.059Z,78.00
2017-12-30T06:12:37.019Z,78.20
2017-12-30T06:15:03.018Z,78.20
2017-12-30T06:17:29.672Z,78.40
2017-12-30T06:19:55.746Z,78.40
2017-12-30T06:22:21.707Z,78.70
2017-12-30T06:24:47.673Z,79.70
2017-12-30T06:27:13.659Z,79.20
2017-12-30T06:29:39.612Z,79.40
2017-12-30T06:32:05.568Z,79.60
2017-12-30T06:34:32.245Z,79.60
2017-12-30T06:36:58.229Z,79.60
2017-12-30T06:39:24.956Z,80.10
2017-12-30T06:41:51.644Z,80.40
2017-12-30T06:44:17.567Z,80.40
2017-12-30T06:46:43.580Z,80.40
2017-12-30T06:49:09.512Z,80.50
2017-12-30T06:51:35.443Z,80.80
2017-12-30T06:54:01.410Z,81.90
2017-12-30T06:56:28.099Z,81.70
2017-12-30T06:58:54.075Z,82.30
2017-12-30T07:01:20.768Z,81.80
2017-12-30T07:03:46.704Z,81.70
2017-12-30T07:06:12.745Z,81.60
2017-12-30T07:08:39.434Z,82.00
2017-12-30T07:11:05.373Z,82.00
2017-12-30T07:13:31.339Z,82.10
2017-12-30T07:15:58.023Z,81.90
2017-12-30T07:18:23.984Z,81.90
2017-12-30T07:20:50.712Z,82.50
2017-12-30T07:23:16.657Z,82.50
2017-12-30T07:25:43.476Z,82.30
2017-12-30T07:28:09.570Z,82.30
2017-12-30T07:30:35.579Z,82.20
2017-12-30T07:33:01.520Z,82.20
2017-12-30T07:35:27.511Z,82.30
2017-12-30T07:37:53.452Z,82.60
2017-12-30T07:40:19.394Z,82.90
2017-12-30T07:42:45.396Z,82.90
2017-12-30T07:45:11.360Z,82.80
2017-12-30T07:47:37.326Z,82.60
2017-12-30T07:50:03.461Z,82.70
2017-12-30T07:52:29.391Z,82.70
2017-12-30T07:54:55.355Z,82.90
2017-12-30T07:57:21.286Z,83.20
2017-12-30T07:59:48.024Z,83.20
2017-12-30T08:02:14.709Z,83.40
2017-12-30T08:04:40.646Z,83.40
2017-12-30T08:07:06.617Z,83.50
2017-12-30T08:09:33.299Z,83.90
2017-12-30T08:11:59.252Z,83.90
2017-12-30T08:14:25.220Z,83.90
2017-12-30T08:16:51.150Z,84.00
2017-12-30T08:19:17.307Z,84.30
2017-12-30T08:21:43.287Z,84.60
2017-12-30T08:24:09.294Z,84.70
2017-12-30T08:26:35.979Z,85.30
2017-12-30T08:29:02.120Z,85.30
2017-12-30T08:31:28.092Z,85.30
2017-12-30T08:33:54.048Z,84.90
2017-12-30T08:36:20.023Z,84.80
2017-12-30T08:38:46.693Z,85.30
2017-12-30T08:41:12.639Z,85.30
2017-12-30T08:43:38.653Z,85.80
2017-12-30T08:46:04.585Z,85.70
2017-12-30T08:48:30.580Z,85.50
2017-12-30T08:50:56.517Z,85.70
2017-12-30T08:53:22.626Z,85.40
2017-12-30T08:55:48.608Z,85.50
2017-12-30T08:58:14.820Z,85.40
2017-12-30T09:00:40.944Z,85.50
2017-12-30T09:03:07.646Z,85.00
2017-12-30T09:05:33.616Z,85.00
2017-12-30T09:07:59.578Z,85.10
2017-12-30T09:10:25.673Z,84.70
2017-12-30T09:12:52.341Z,84.50
2017-12-30T09:15:18.283Z,84.50
2017-12-30T09:17:44.342Z,84.80
2017-12-30T09:20:10.251Z,85.10
2017-12-30T09:22:36.195Z,85.30
2017-12-30T09:25:02.907Z,85.10
2017-12-30T09:27:29.000Z,85.10
2017-12-30T09:29:55.084Z,85.30
2017-12-30T09:32:21.760Z,84.90
2017-12-30T09:34:48.439Z,85.40
2017-12-30T09:37:14.429Z,84.60
2017-12-30T09:39:40.363Z,84.40
2017-12-30T09:42:06.336Z,84.50
2017-12-30T09:44:33.120Z,84.20
2017-12-30T09:46:59.176Z,84.20
2017-12-30T09:49:25.122Z,83.90
2017-12-30T09:51:51.067Z,83.80
2017-12-30T09:54:17.076Z,84.00
2017-12-30T09:56:43.048Z,83.90
2017-12-30T09:59:09.035Z,84.10
2017-12-30T10:01:34.983Z,83.70
2017-12-30T10:04:00.924Z,83.80
2017-12-30T10:06:31.087Z,83.60
2017-12-30T10:08:57.067Z,83.60
2017-12-30T10:11:23.019Z,83.50
2017-12-30T10:13:49.022Z,83.70
2017-12-30T10:16:14.968Z,83.60
2017-12-30T10:18:41.676Z,83.30
2017-12-30T10:21:07.608Z,83.30
2017-12-30T10:23:37.154Z,83.10
2017-12-30T10:26:03.262Z,84.10
2017-12-30T10:28:33.213Z,83.80
2017-12-30T10:30:59.345Z,83.70
2017-12-30T10:33:25.293Z,83.50
2017-12-30T10:35:51.322Z,83.60
2017-12-30T10:38:21.885Z,83.30
2017-12-30T10:40:47.918Z,83.10
2017-12-30T10:43:13.891Z,83.40
2017-12-30T10:45:39.838Z,83.30
2017-12-30T10:48:06.672Z,83.80
2017-12-30T10:50:33.362Z,84.30
2017-12-30T10:52:59.372Z,84.30
2017-12-30T10:55:25.320Z,83.50
2017-12-30T10:57:51.357Z,84.10
2017-12-30T11:00:17.367Z,83.80
2017-12-30T11:02:43.318Z,84.10
2017-12-30T11:05:09.292Z,84.00
2017-12-30T11:07:35.241Z,84.20
2017-12-30T11:10:01.203Z,83.80
2017-12-30T11:12:30.481Z,84.30
2017-12-30T11:14:58.540Z,84.20
2017-12-30T11:17:26.371Z,84.20
2017-12-30T11:19:52.601Z,84.30
2017-12-30T11:22:18.548Z,84.70
2017-12-30T11:24:44.551Z,84.80
2017-12-30T11:27:10.652Z,85.10
2017-12-30T11:29:36.659Z,85.60
2017-12-30T11:32:03.397Z,86.20
2017-12-30T11:34:30.101Z,86.30
2017-12-30T11:36:56.055Z,86.40
2017-12-30T11:39:22.160Z,86.20
2017-12-30T11:41:48.092Z,86.00
2017-12-30T11:44:14.783Z,86.30
2017-12-30T11:46:40.772Z,86.20
2017-12-30T11:49:06.716Z,86.30
2017-12-30T11:51:32.750Z,86.10
2017-12-30T11:53:58.687Z,86.10
2017-12-30T11:56:24.624Z,86.50
2017-12-30T11:58:50.889Z,86.60
2017-12-30T12:01:16.828Z,86.70
2017-12-30T12:03:42.819Z,86.90
2017-12-30T12:06:09.532Z,87.10
2017-12-30T12:08:35.478Z,86.90
2017-12-30T12:11:03.780Z,87.10
2017-12-30T12:13:29.719Z,87.10
2017-12-30T12:15:55.695Z,86.90
2017-12-30T12:18:25.630Z,86.80
2017-12-30T12:20:52.658Z,86.70
2017-12-30T12:23:20.976Z,86.60
2017-12-30T12:25:47.288Z,87.00
2017-12-30T12:28:13.580Z,87.40
2017-12-30T12:30:39.549Z,87.90
2017-12-30T12:33:05.524Z,88.30
2017-12-30T12:35:31.528Z,88.00
2017-12-30T12:37:57.487Z,88.20
2017-12-30T12:40:24.203Z,87.30
2017-12-30T12:42:56.135Z,87.30
2017-12-30T12:45:22.439Z,87.00
2017-12-30T12:47:53.196Z,86.90
2017-12-30T12:50:21.463Z,86.30
2017-12-30T12:52:48.387Z,86.80
2017-12-30T12:55:14.336Z,87.50
2017-12-30T12:57:40.364Z,87.10
2017-12-30T13:00:09.617Z,87.40
2017-12-30T13:02:37.259Z,88.00
2017-12-30T13:05:03.377Z,88.00
2017-12-30T13:07:30.071Z,88.50
2017-12-30T13:09:56.020Z,88.50
2017-12-30T13:12:22.032Z,88.40
2017-12-30T13:14:47.984Z,86.90
2017-12-30T13:17:13.962Z,86.20
2017-12-30T13:19:39.920Z,86.10
2017-12-30T13:22:05.864Z,86.00
2017-12-30T13:24:31.828Z,85.40
2017-12-30T13:26:57.927Z,85.20
2017-12-30T13:29:24.624Z,84.50
2017-12-30T13:31:50.746Z,84.50
2017-12-30T13:34:16.698Z,84.20
2017-12-30T13:36:42.674Z,84.40
2017-12-30T13:39:08.630Z,84.20
2017-12-30T13:41:34.599Z,84.00
2017-12-30T13:44:02.480Z,83.10
2017-12-30T13:46:28.547Z,83.10
2017-12-30T13:48:54.569Z,82.90
2017-12-30T13:51:20.523Z,82.30
2017-12-30T13:53:46.462Z,82.60
2017-12-30T13:56:12.487Z,82.80
2017-12-30T13:58:38.619Z,82.30
2017-12-30T14:01:05.292Z,81.90
2017-12-30T14:03:31.404Z,81.90
2017-12-30T14:05:57.373Z,82.60
2017-12-30T14:08:23.360Z,82.10
2017-12-30T14:10:49.358Z,81.70
2017-12-30T14:13:15.303Z,81.30
2017-12-30T14:15:41.255Z,81.60
2017-12-30T14:18:07.944Z,81.20
2017-12-30T14:20:34.095Z,81.20
2017-12-30T14:23:00.064Z,81.10
2017-12-30T14:25:26.035Z,81.30
2017-12-30T14:27:52.156Z,82.00
2017-12-30T14:30:18.115Z,81.50
2017-12-30T14:32:44.843Z,81.50
2017-12-30T14:35:10.795Z,81.30
2017-12-30T14:37:36.727Z,81.10
2017-12-30T14:40:02.831Z,80.40
2017-12-30T14:42:28.785Z,80.30
2017-12-30T14:44:54.784Z,80.20
2017-12-30T14:47:20.740Z,80.00
2017-12-30T14:49:46.695Z,80.10
2017-12-30T14:52:12.807Z,79.90
2017-12-30T14:54:38.754Z,80.90
2017-12-30T14:57:04.756Z,81.80
2017-12-30T14:59:30.743Z,82.60
2017-12-30T15:01:56.712Z,83.10
2017-12-30T15:04:23.469Z,83.50
2017-12-30T15:06:50.176Z,83.60
2017-12-30T15:09:16.133Z,83.60
2017-12-30T15:11:42.888Z,84.30
2017-12-30T15:14:08.852Z,84.20
2017-12-30T15:16:34.861Z,84.20
2017-12-30T15:19:00.805Z,84.20
2017-12-30T15:21:26.819Z,84.00
2017-12-30T15:23:52.765Z,84.00
2017-12-30T15:26:18.719Z,83.60
2017-12-30T15:28:45.984Z,83.70
2017-12-30T15:31:12.687Z,83.50
2017-12-30T15:33:39.516Z,83.10
2017-12-30T15:36:05.445Z,83.00
2017-12-30T15:38:32.196Z,82.40
2017-12-30T15:40:58.904Z,82.30
2017-12-30T15:43:24.836Z,82.30
2017-12-30T15:45:50.861Z,82.20
2017-12-30T15:48:16.817Z,82.20
2017-12-30T15:50:42.763Z,81.70
2017-12-30T15:53:08.864Z,81.70
2017-12-30T15:55:34.824Z,81.40
2017-12-30T15:58:02.631Z,81.40
2017-12-30T16:00:30.687Z,81.20
2017-12-30T16:02:56.709Z,81.00
2017-12-30T16:05:22.681Z,81.10
2017-12-30T16:07:48.636Z,81.00
2017-12-30T16:10:14.637Z,81.30
2017-12-30T16:12:40.584Z,81.00
2017-12-30T16:15:06.604Z,80.80
2017-12-30T16:17:32.588Z,80.70
2017-12-30T16:19:58.584Z,80.90
2017-12-30T16:22:24.560Z,81.20
2017-12-30T16:24:50.521Z,81.30
2017-12-30T16:27:16.694Z,81.50
2017-12-30T16:29:42.696Z,81.80
2017-12-30T16:32:09.780Z,81.90
2017-12-30T16:34:38.076Z,82.30
2017-12-30T16:37:04.065Z,82.30
2017-12-30T16:39:30.087Z,82.10
2017-12-30T16:41:58.560Z,81.90
2017-12-30T16:44:24.535Z,81.50
2017-12-30T16:46:50.579Z,81.30
2017-12-30T16:49:17.272Z,81.00
2017-12-30T16:51:43.292Z,81.00
2017-12-30T16:54:09.262Z,80.70
2017-12-30T16:56:35.253Z,80.50
2017-12-30T16:59:01.400Z,80.20
2017-12-30T17:01:28.097Z,80.10
2017-12-30T17:03:54.162Z,80.00
2017-12-30T17:06:21.065Z,79.40
2017-12-30T17:08:47.086Z,79.30
2017-12-30T17:11:13.704Z,79.00
2017-12-30T17:13:39.638Z,78.80
2017-12-30T17:16:05.615Z,78.60
2017-12-30T17:18:32.310Z,78.30
2017-12-30T17:20:58.416Z,78.30
2017-12-30T17:23:24.364Z,78.10
2017-12-30T17:25:50.329Z,78.30
2017-12-30T17:28:17.069Z,78.30
2017-12-30T17:30:43.956Z,78.20
2017-12-30T17:33:09.945Z,78.40
2017-12-30T17:35:35.924Z,78.20
2017-12-30T17:38:01.896Z,78.30
2017-12-30T17:40:28.005Z,77.90
2017-12-30T17:42:54.742Z,78.60
2017-12-30T17:45:21.471Z,78.90
2017-12-30T17:47:47.452Z,78.90
2017-12-30T17:50:13.472Z,79.30
2017-12-30T17:52:39.418Z,79.80
2017-12-30T17:55:05.370Z,80.10
2017-12-30T17:57:32.169Z,80.40
2017-12-30T17:59:58.273Z,80.40
2017-12-30T18:02:24.255Z,80.20
2017-12-30T18:04:50.983Z,79.10
2017-12-30T18:07:16.952Z,79.10
2017-12-30T18:09:43.680Z,79.20
2017-12-30T18:12:09.640Z,79.20
2017-12-30T18:14:35.673Z,79.10
2017-12-30T18:17:01.626Z,79.00
2017-12-30T18:19:27.581Z,79.30
2017-12-30T18:21:53.583Z,78.90
2017-12-30T18:24:20.275Z,79.20
2017-12-30T18:26:46.245Z,79.20
2017-12-30T18:29:12.235Z,79.50
2017-12-30T18:31:38.381Z,79.60
2017-12-30T18:34:05.100Z,80.70
2017-12-30T18:36:31.092Z,80.70
2017-12-30T18:38:57.059Z,81.20
2017-12-30T18:41:23.802Z,81.90
2017-12-30T18:43:50.484Z,82.00
2017-12-30T18:46:16.608Z,82.00
2017-12-30T18:48:42.593Z,82.10
2017-12-30T18:51:09.292Z,82.50
2017-12-30T18:53:35.400Z,82.40
2017-12-30T18:56:01.382Z,82.80
2017-12-30T18:58:28.247Z,83.40
2017-12-30T19:00:54.245Z,83.40
2017-12-30T19:03:20.212Z,83.40
2017-12-30T19:05:46.189Z,83.00
2017-12-30T19:08:12.880Z,83.40
2017-12-30T19:10:39.044Z,83.40
2017-12-30T19:13:05.072Z,83.50
2017-12-30T19:15:31.764Z,84.00
2017-12-30T19:17:58.651Z,84.00
2017-12-30T19:20:25.523Z,84.90
2017-12-30T19:22:52.707Z,84.90
2017-12-30T19:25:18.665Z,85.20
2017-12-30T19:27:45.656Z,86.00
2017-12-30T19:30:13.168Z,86.30
2017-12-30T19:32:39.149Z,86.20
2017-12-30T19:35:05.124Z,86.60
2017-12-30T19:37:31.110Z,86.90
2017-12-30T19:39:57.099Z,87.10
2017-12-30T19:42:27.203Z,87.10
2017-12-30T19:44:54.153Z,87.70
2017-12-30T19:47:22.025Z,88.30
2017-12-30T19:49:49.169Z,88.30
2017-12-30T19:52:16.444Z,89.00
2017-12-30T19:54:44.990Z,89.60
2017-12-30T19:57:13.643Z,90.20
2017-12-30T19:59:39.803Z,90.20
2017-12-30T20:02:06.547Z,90.60
2017-12-30T20:04:32.496Z,90.60
2017-12-30T20:06:58.480Z,90.80
2017-12-30T20:09:25.179Z,91.00
2017-12-30T20:11:51.146Z,91.00
2017-12-30T20:14:17.881Z,91.20
2017-12-30T20:16:44.650Z,91.40
2017-12-30T20:26:55.669Z,91.70
2017-12-30T20:29:22.228Z,91.80
2017-12-30T20:31:48.252Z,92.00
2017-12-30T20:34:14.285Z,92.00
2017-12-30T20:36:40.384Z,92.10
2017-12-30T20:39:06.316Z,92.20
2017-12-30T20:41:32.258Z,92.20
2017-12-30T20:43:58.228Z,92.30
2017-12-30T20:46:24.184Z,92.40
2017-12-30T20:48:50.328Z,92.50
